Time,TemperatureF,DewpointF,PressureIn,WindDirection,WindDirectionDegrees,WindSpeedMPH,WindSpeedGustMPH,Humidity,HourlyPrecipIn,Conditions,Clouds,dailyrainin,SolarRadiationWatts/m^2,SoftwareType,DateUTC
2013-09-04 00:22:00,56.0,44.0,-100.00,WNW,289,5.0,13.0,64,0.00,,,0.04,0.000000,,2013-09-04 06:22:00,
2013-09-04 00:32:00,56.0,44.0,-100.00,WNW,289,5.0,13.0,64,0.00,,,0.04,0.000000,,2013-09-04 06:32:00,
2013-09-04 00:42:00,56.0,44.0,-100.00,WNW,289,5.0,13.0,64,0.00,,,0.04,0.000000,,2013-09-04 06:42:00,
2013-09-04 00:52:00,56.0,44.0,-100.00,WNW,289,5.0,13.0,64,0.00,,,0.04,0.000000,,2013-09-04 06:52:00,
2013-09-04 01:22:00,52.0,45.0,-100.00,West,263,0.0,6.0,76,0.00,,,0.04,0.000000,,2013-09-04 07:22:00,
2013-09-04 01:32:00,52.0,45.0,-100.00,West,263,0.0,6.0,76,0.00,,,0.04,0.000000,,2013-09-04 07:32:00,
2013-09-04 01:42:00,52.0,45.0,-100.00,West,263,0.0,6.0,76,0.00,,,0.04,0.000000,,2013-09-04 07:42:00,
2013-09-04 01:52:00,52.0,45.0,-100.00,West,263,0.0,6.0,76,0.00,,,0.04,0.000000,,2013-09-04 07:52:00,
2013-09-04 02:22:00,51.0,43.0,-100.00,WSW,249,2.0,4.0,75,0.00,,,0.04,0.000000,,2013-09-04 08:22:00,
2013-09-04 02:32:00,51.0,43.0,-100.00,WSW,249,2.0,4.0,75,0.00,,,0.04,0.000000,,2013-09-04 08:32:00,
2013-09-04 02:43:00,51.0,43.0,-100.00,WSW,249,2.0,4.0,75,0.00,,,0.04,0.000000,,2013-09-04 08:43:00,
2013-09-04 02:52:00,51.0,43.0,-100.00,WSW,249,2.0,4.0,75,0.00,,,0.04,0.000000,,2013-09-04 08:52:00,
2013-09-04 03:22:00,50.0,43.0,-100.00,NNW,343,4.0,6.0,77,0.00,,,0.04,0.000000,,2013-09-04 09:22:00,
2013-09-04 03:33:00,50.0,43.0,-100.00,NNW,343,4.0,6.0,77,0.00,,,0.04,0.000000,,2013-09-04 09:33:00,
2013-09-04 03:43:00,50.0,43.0,-100.00,NNW,343,4.0,6.0,77,0.00,,,0.04,0.000000,,2013-09-04 09:43:00,
2013-09-04 03:53:00,50.0,43.0,-100.00,NNW,343,4.0,6.0,77,0.00,,,0.04,0.000000,,2013-09-04 09:53:00,
2013-09-04 04:23:00,50.0,43.0,-100.00,SSE,164,2.0,6.0,76,0.00,,,0.04,0.000000,,2013-09-04 10:23:00,
2013-09-04 04:33:00,50.0,43.0,-100.00,SSE,164,2.0,6.0,76,0.00,,,0.04,0.000000,,2013-09-04 10:33:00,
2013-09-04 04:42:00,50.0,43.0,-100.00,SSE,164,2.0,6.0,76,0.00,,,0.04,0.000000,,2013-09-04 10:42:00,
2013-09-04 04:52:00,50.0,43.0,-100.00,SSE,164,2.0,6.0,76,0.00,,,0.04,0.000000,,2013-09-04 10:52:00,
2013-09-04 05:22:00,52.0,43.0,-100.00,WSW,255,3.0,7.0,70,0.00,,,0.04,0.000000,,2013-09-04 11:22:00,
2013-09-04 05:33:00,52.0,43.0,-100.00,WSW,255,3.0,7.0,70,0.00,,,0.04,0.000000,,2013-09-04 11:33:00,
2013-09-04 05:42:00,52.0,43.0,-100.00,WSW,255,3.0,7.0,70,0.00,,,0.04,0.000000,,2013-09-04 11:42:00,
2013-09-04 05:51:00,52.0,43.0,-100.00,WSW,255,3.0,7.0,70,0.00,,,0.04,0.000000,,2013-09-04 11:51:00,
2013-09-04 06:21:00,52.0,42.0,-100.00,South,191,1.0,3.0,69,0.00,,,0.04,0.000000,,2013-09-04 12:21:00,
2013-09-04 06:32:00,52.0,42.0,-100.00,South,191,1.0,3.0,69,0.00,,,0.04,0.000000,,2013-09-04 12:32:00,
2013-09-04 06:42:00,52.0,42.0,-100.00,South,191,1.0,3.0,69,0.00,,,0.04,0.000000,,2013-09-04 12:42:00,
2013-09-04 06:52:00,52.0,42.0,-100.00,South,191,1.0,3.0,69,0.00,,,0.04,0.000000,,2013-09-04 12:52:00,
2013-09-04 07:22:00,54.0,42.0,-100.00,SSW,192,1.0,4.0,64,0.00,,,0.04,2.000000,,2013-09-04 13:22:00,
2013-09-04 07:32:00,54.0,42.0,-100.00,SSW,192,1.0,4.0,64,0.00,,,0.04,2.000000,,2013-09-04 13:32:00,
2013-09-04 07:42:00,54.0,42.0,-100.00,SSW,192,1.0,4.0,64,0.00,,,0.04,2.000000,,2013-09-04 13:42:00,
2013-09-04 07:52:00,54.0,42.0,-100.00,SSW,192,1.0,4.0,64,0.00,,,0.04,2.000000,,2013-09-04 13:52:00,
2013-09-04 08:21:00,54.0,43.0,-100.00,NNW,336,1.0,3.0,67,0.00,,,0.04,49.000000,,2013-09-04 14:21:00,
2013-09-04 08:32:00,54.0,43.0,-100.00,NNW,336,1.0,3.0,67,0.00,,,0.04,49.000000,,2013-09-04 14:32:00,
2013-09-04 08:42:00,54.0,43.0,-100.00,NNW,336,1.0,3.0,67,0.00,,,0.04,49.000000,,2013-09-04 14:42:00,
2013-09-04 08:52:00,54.0,43.0,-100.00,NNW,336,1.0,3.0,67,0.00,,,0.04,49.000000,,2013-09-04 14:52:00,
2013-09-04 09:43:00,59.0,50.0,-100.00,SE,130,1.0,3.0,72,0.00,,,0.04,160.000000,,2013-09-04 15:43:00,
2013-09-04 09:53:00,59.0,50.0,-100.00,SE,130,1.0,3.0,72,0.00,,,0.04,160.000000,,2013-09-04 15:53:00,
2013-09-04 10:53:00,67.0,50.0,-100.00,ESE,116,3.0,5.0,54,0.00,,,0.04,474.000000,,2013-09-04 16:53:00,
2013-09-04 11:23:00,71.0,47.0,-100.00,ESE,110,5.0,7.0,42,0.00,,,0.04,680.000000,,2013-09-04 17:23:00,
2013-09-04 11:34:00,71.0,47.0,-100.00,ESE,110,5.0,7.0,42,0.00,,,0.04,680.000000,,2013-09-04 17:34:00,
2013-09-04 11:42:00,71.0,47.0,-100.00,ESE,110,5.0,7.0,42,0.00,,,0.04,680.000000,,2013-09-04 17:42:00,
2013-09-04 11:52:00,71.0,47.0,-100.00,ESE,110,5.0,7.0,42,0.00,,,0.04,680.000000,,2013-09-04 17:52:00,
2013-09-04 12:22:00,74.0,46.0,-100.00,SE,139,5.0,11.0,37,0.00,,,0.04,782.000000,,2013-09-04 18:22:00,
2013-09-04 12:32:00,74.0,46.0,-100.00,SE,139,5.0,11.0,37,0.00,,,0.04,782.000000,,2013-09-04 18:32:00,
2013-09-04 12:42:00,74.0,46.0,-100.00,SE,139,5.0,11.0,37,0.00,,,0.04,782.000000,,2013-09-04 18:42:00,
2013-09-04 12:52:00,74.0,46.0,-100.00,SE,139,5.0,11.0,37,0.00,,,0.04,782.000000,,2013-09-04 18:52:00,
2013-09-04 13:22:00,77.0,44.0,-100.00,East,92,5.0,11.0,31,0.00,,,-99.99,919.000000,,2013-09-04 19:22:00,
2013-09-04 13:32:00,77.0,44.0,-100.00,East,92,5.0,11.0,31,0.00,,,-99.99,919.000000,,2013-09-04 19:32:00,
2013-09-04 13:42:00,77.0,44.0,-100.00,East,92,5.0,11.0,31,0.00,,,-99.99,919.000000,,2013-09-04 19:42:00,
2013-09-04 13:52:00,77.0,44.0,-100.00,East,92,5.0,11.0,31,0.00,,,-99.99,919.000000,,2013-09-04 19:52:00,
2013-09-04 15:22:00,64.0,46.0,-100.00,NNW,330,3.0,15.0,52,-99.99,,,0.02,76.000000,,2013-09-04 21:22:00,
2013-09-04 15:34:00,64.0,46.0,-100.00,NNW,330,3.0,15.0,52,-99.99,,,0.02,76.000000,,2013-09-04 21:34:00,
2013-09-04 15:44:00,64.0,46.0,-100.00,NNW,330,3.0,15.0,52,-99.99,,,0.02,76.000000,,2013-09-04 21:44:00,
2013-09-04 15:54:00,64.0,46.0,-100.00,NNW,330,3.0,15.0,52,-99.99,,,0.02,76.000000,,2013-09-04 21:54:00,
2013-09-04 16:23:00,61.0,47.0,-100.00,SW,214,4.0,11.0,61,0.00,,,0.02,66.000000,,2013-09-04 22:23:00,
2013-09-04 16:33:00,61.0,47.0,-100.00,SW,214,4.0,11.0,61,0.00,,,0.02,66.000000,,2013-09-04 22:33:00,
2013-09-04 16:43:00,61.0,47.0,-100.00,SW,214,4.0,11.0,61,0.00,,,0.02,66.000000,,2013-09-04 22:43:00,
2013-09-04 16:54:00,61.0,47.0,-100.00,SW,214,4.0,11.0,61,0.00,,,0.02,66.000000,,2013-09-04 22:54:00,
2013-09-04 17:22:00,61.0,47.0,-100.00,NW,316,6.0,9.0,59,0.00,,,0.02,52.000000,,2013-09-04 23:22:00,
2013-09-04 17:34:00,61.0,47.0,-100.00,NW,316,6.0,9.0,59,0.00,,,0.02,52.000000,,2013-09-04 23:34:00,
2013-09-04 17:42:00,61.0,47.0,-100.00,NW,316,6.0,9.0,59,0.00,,,0.02,52.000000,,2013-09-04 23:42:00,
2013-09-04 17:52:00,61.0,47.0,-100.00,NW,316,6.0,9.0,59,0.00,,,0.02,52.000000,,2013-09-04 23:52:00,
2013-09-04 18:22:00,58.0,47.0,-100.00,NW,309,13.0,23.0,66,0.01,,,0.03,23.000000,,2013-09-05 00:22:00,
2013-09-04 18:32:00,58.0,47.0,-100.00,NW,309,13.0,23.0,66,0.01,,,0.03,23.000000,,2013-09-05 00:32:00,
2013-09-04 18:42:00,58.0,47.0,-100.00,NW,309,13.0,23.0,66,0.01,,,0.03,23.000000,,2013-09-05 00:42:00,
2013-09-04 18:52:00,58.0,47.0,-100.00,NW,309,13.0,23.0,66,0.01,,,0.03,23.000000,,2013-09-05 00:52:00,
2013-09-04 19:22:00,55.0,44.0,-100.00,SW,234,9.0,18.0,67,0.00,,,0.03,5.000000,,2013-09-05 01:22:00,
2013-09-04 19:32:00,55.0,44.0,-100.00,SW,234,9.0,18.0,67,0.00,,,0.03,5.000000,,2013-09-05 01:32:00,
2013-09-04 19:42:00,55.0,44.0,-100.00,SW,234,9.0,18.0,67,0.00,,,0.03,5.000000,,2013-09-05 01:42:00,
2013-09-04 19:52:00,55.0,44.0,-100.00,SW,234,9.0,18.0,67,0.00,,,0.03,5.000000,,2013-09-05 01:52:00,
2013-09-04 20:52:00,60.0,41.0,-100.00,WSW,246,5.0,21.0,49,0.01,,,0.03,2.000000,,2013-09-05 02:52:00,
2013-09-04 21:22:00,56.0,44.0,-100.00,West,263,2.0,15.0,64,0.00,,,0.02,0.000000,,2013-09-05 03:22:00,
2013-09-04 21:34:00,56.0,44.0,-100.00,West,263,2.0,15.0,64,0.00,,,0.02,0.000000,,2013-09-05 03:34:00,
2013-09-04 21:45:00,56.0,44.0,-100.00,West,263,2.0,15.0,64,0.00,,,0.02,0.000000,,2013-09-05 03:45:00,
2013-09-04 21:54:00,56.0,44.0,-100.00,West,263,2.0,15.0,64,0.00,,,0.02,0.000000,,2013-09-05 03:54:00,
2013-09-04 22:24:00,55.0,45.0,-100.00,SW,216,6.0,10.0,69,0.00,,,0.02,0.000000,,2013-09-05 04:24:00,
2013-09-04 22:34:00,55.0,45.0,-100.00,SW,216,6.0,10.0,69,0.00,,,0.02,0.000000,,2013-09-05 04:34:00,
2013-09-04 22:44:00,55.0,45.0,-100.00,SW,216,6.0,10.0,69,0.00,,,0.02,0.000000,,2013-09-05 04:44:00,
2013-09-04 22:53:00,55.0,45.0,-100.00,SW,216,6.0,10.0,69,0.00,,,0.02,0.000000,,2013-09-05 04:53:00,
2013-09-04 23:23:00,54.0,44.0,-100.00,NW,312,8.0,13.0,70,0.00,,,0.02,0.000000,,2013-09-05 05:23:00,
2013-09-04 23:34:00,54.0,44.0,-100.00,NW,312,8.0,13.0,70,0.00,,,0.02,0.000000,,2013-09-05 05:34:00,
2013-09-04 23:43:00,54.0,44.0,-100.00,NW,312,8.0,13.0,70,0.00,,,0.02,0.000000,,2013-09-05 05:43:00,
2013-09-04 23:52:00,54.0,44.0,-100.00,NW,312,8.0,13.0,70,0.00,,,0.02,0.000000,,2013-09-05 05:52:00,